Macomb, IL

12:08 PM CDT on June 28, 2017 (GMT -0500)
Macomb Municipal

Weather History for KMQB - November, 2012

Change the Weather History Date:

Wednesday, November 21, 2012

  Actual Average (KBRL) Record (KBRL)
Temperature  
Mean Temperature 48 °F -  
Max Temperature 59 °F 45 °F 75 °F (1913)
Min Temperature 36 °F 27 °F 4 °F (1937)
Degree Days  
Heating Degree Days 18    
Moisture  
Dew Point 44 °F    
Average Humidity 93    
Maximum Humidity 100    
Minimum Humidity 65    
Precipitation  
Precipitation 0.00 in - - ()
Sea Level Pressure  
Sea Level Pressure 30.19 in    
Wind  
Wind Speed 4 mph (South)    
Max Wind Speed 13 mph    
Max Gust Speed -    
Visibility 4 miles    
Events Fog    
Averages and records for this station are not official NWS values.
T = Trace of Precipitation, MM = Missing Value Source: NWS Daily Summary

Daily Weather History Graph

Daily Weather History Graph

Search for Another Location

Airport or City:

Trip Planner

Search our weather history database for the weather conditions in past years. The results will help you decide how hot, cold, wet, or windy it might be!

Date:

Astronomy

Nov. 21, 2012 Rise Set
Actual Time 6:56 AM CST 4:40 PM CST
Civil Twilight 6:26 AM CST 5:10 PM CST
Nautical Twilight 5:53 AM CST 5:43 PM CST
Astronomical Twilight 5:20 AM CST 6:16 PM CST
Moon 12:58 PM CST (11/21) 12:14 AM CST (11/21)
Length of Visible Light 10h 43m
Length of Day
9h 44m
First Quarter, 62% of the Moon is Illuminated
Nov 21
First Quarter
Nov 28
Full
Dec 6
Last Quarter
Dec 13
New
Dec 19
First Quarter

Hourly Weather History & Observations

Time (CST) Temp. Windchill Dew Point Humidity Pressure Visibility Wind Dir Wind Speed Gust Speed Precip Events Conditions
12:16 AM 42.8 °F - 42.8 °F 100% 30.22 in 0.2 mi Calm Calm - N/A Fog Fog
12:36 AM 42.8 °F - 42.8 °F 100% 30.22 in 0.2 mi Calm Calm - N/A Fog Fog
12:56 AM 42.8 °F - 42.8 °F 100% 30.23 in 0.2 mi Calm Calm - N/A Fog Fog
1:16 AM 41.0 °F 38.0 °F 41.0 °F 100% 30.23 in 0.2 mi West 4.6 mph - N/A Fog Fog
1:36 AM 39.2 °F - 39.2 °F 100% 30.23 in 0.2 mi Calm Calm - N/A Fog Fog
1:56 AM 39.2 °F - 39.2 °F 100% 30.23 in 0.2 mi Calm Calm - N/A Fog Fog
2:18 AM 39.2 °F - 39.2 °F 100% 30.23 in 0.2 mi Calm Calm - N/A Fog Fog
2:36 AM 39.2 °F 37.0 °F 39.2 °F 100% 30.22 in 0.2 mi SSW 3.5 mph - N/A Fog Fog
2:56 AM 39.2 °F - 39.2 °F 100% 30.22 in 0.2 mi Calm Calm - N/A Fog Fog
3:18 AM 39.2 °F - 39.2 °F 100% 30.22 in 0.2 mi Calm Calm - N/A Fog Fog
3:36 AM 39.2 °F - 39.2 °F 100% 30.23 in 0.2 mi Calm Calm - N/A Fog Fog
3:56 AM 39.2 °F - 39.2 °F 100% 30.23 in 0.2 mi Calm Calm - N/A Fog Fog
4:16 AM 39.2 °F - 39.2 °F 100% 30.24 in 0.2 mi Calm Calm - N/A Fog Fog
4:36 AM 39.2 °F - 39.2 °F 100% 30.24 in 0.2 mi Calm Calm - N/A Fog Fog
4:56 AM 39.2 °F - 39.2 °F 100% 30.24 in 0.2 mi Calm Calm - N/A Fog Fog
5:16 AM 37.4 °F 34.9 °F 37.4 °F 100% 30.24 in 0.2 mi SSE 3.5 mph - N/A Fog Fog
5:36 AM 37.4 °F 34.9 °F 37.4 °F 100% 30.25 in 0.2 mi South 3.5 mph - N/A Fog Fog
5:58 AM 37.4 °F - 37.4 °F 100% 30.24 in 0.2 mi Calm Calm - N/A Fog Fog
6:16 AM 37.4 °F 34.9 °F 37.4 °F 100% 30.25 in 0.2 mi SW 3.5 mph - N/A Fog Fog
6:35 AM - - - N/A% 30.25 in - North - - N/A   Unknown
6:36 AM - - - N/A% 30.25 in - Calm Calm - N/A   Unknown
6:55 AM 37.2 °F - 37.2 °F 100% 30.26 in 0.2 mi Calm Calm - N/A Fog Fog
7:15 AM 37.0 °F - 37.0 °F 100% 30.26 in 0.2 mi Calm Calm - N/A Fog Fog
7:35 AM 36.9 °F - 36.9 °F 100% 30.26 in 0.2 mi Calm Calm - N/A Fog Fog
7:55 AM 37.0 °F - 37.0 °F 100% 30.26 in 0.2 mi Calm Calm - N/A Fog Fog
8:15 AM 37.2 °F 34.7 °F 37.2 °F 100% 30.27 in 0.2 mi South 3.5 mph - N/A Fog Fog
8:35 AM 37.8 °F 35.3 °F 37.8 °F 100% 30.27 in 0.2 mi SW 3.5 mph - N/A Fog Fog
8:55 AM 38.5 °F 36.1 °F 38.5 °F 100% 30.27 in 0.2 mi South 3.5 mph - N/A Fog Fog
9:15 AM 39.2 °F 37.0 °F 39.2 °F 100% 30.27 in 0.2 mi South 3.5 mph - N/A Fog Fog
9:35 AM 39.7 °F 35.6 °F 39.7 °F 100% 30.27 in 0.2 mi SSE 5.8 mph - N/A Fog Fog
9:55 AM 40.8 °F 38.8 °F 40.8 °F 100% 30.27 in 0.2 mi South 3.5 mph - N/A Fog Fog
10:15 AM 42.1 °F 39.2 °F 42.1 °F 100% 30.27 in 0.2 mi SSW 4.6 mph - N/A Fog Fog
10:35 AM 43.2 °F 39.7 °F 43.2 °F 100% 30.26 in 0.5 mi South 5.8 mph - N/A Fog Fog
10:55 AM 44.6 °F 41.4 °F 44.6 °F 100% 30.25 in 1.2 mi South 5.8 mph - N/A   Overcast
11:15 AM 45.9 °F 42.9 °F 45.9 °F 100% 30.25 in 2.0 mi South 5.8 mph - N/A   Overcast
11:35 AM 47.1 °F - 47.1 °F 100% 30.24 in 3.0 mi South 4.6 mph - N/A   Mostly Cloudy
11:55 AM 48.2 °F - 48.2 °F 100% 30.23 in 4.0 mi South 6.9 mph - N/A   Scattered Clouds
12:15 PM 49.6 °F - 49.6 °F 100% 30.22 in 5.0 mi SSW 6.9 mph - N/A   Clear
12:35 PM 51.1 °F - 51.1 °F 100% 30.21 in 7.0 mi South 6.9 mph - N/A   Clear
12:55 PM 54.1 °F - 54.1 °F 100% 30.20 in 10.0 mi SSW 6.9 mph - N/A   Clear
1:15 PM 56.1 °F - 50.5 °F 82% 30.20 in 10.0 mi South 10.4 mph - N/A   Clear
1:35 PM 57.7 °F - 49.6 °F 74% 30.19 in 10.0 mi South 8.1 mph - N/A   Clear
1:55 PM 58.3 °F - 48.9 °F 71% 30.18 in 7.0 mi South 10.4 mph - N/A   Clear
2:15 PM 59.4 °F - 49.1 °F 69% 30.17 in 7.0 mi South 10.4 mph - N/A   Clear
2:35 PM 59.9 °F - 48.0 °F 65% 30.16 in 10.0 mi South 9.2 mph - N/A   Clear
2:55 PM 59.9 °F - 49.3 °F 68% 30.15 in 10.0 mi South 10.4 mph - N/A   Clear
3:15 PM 59.2 °F - 49.5 °F 70% 30.15 in 10.0 mi SSE 10.4 mph - N/A   Clear
3:35 PM 57.7 °F - 49.5 °F 74% 30.14 in 10.0 mi SSE 9.2 mph - N/A   Clear
3:55 PM 56.8 °F - 49.1 °F 75% 30.14 in 10.0 mi SSE 9.2 mph - N/A   Clear
4:15 PM 55.4 °F - 48.4 °F 77% 30.14 in 10.0 mi SSE 8.1 mph - N/A   Clear
4:35 PM 53.6 °F - 47.8 °F 81% 30.14 in 10.0 mi SSE 8.1 mph - N/A   Clear
4:55 PM 52.2 °F - 47.3 °F 83% 30.14 in 7.0 mi SSE 9.2 mph - N/A   Clear
5:15 PM 50.9 °F - 46.8 °F 86% 30.13 in 10.0 mi SSE 8.1 mph - N/A   Clear
5:35 PM 50.4 °F - 46.4 °F 86% 30.13 in 10.0 mi South 8.1 mph - N/A   Clear
5:55 PM 49.5 °F - 45.5 °F 86% 30.13 in 10.0 mi South 6.9 mph - N/A   Clear
6:15 PM 48.2 °F - 44.8 °F 88% 30.13 in 7.0 mi SSE 5.8 mph - N/A   Clear
6:35 PM 47.8 °F - 45.0 °F 90% 30.12 in 7.0 mi SSE 9.2 mph - N/A   Clear
6:55 PM 48.2 °F - 45.5 °F 90% 30.12 in 7.0 mi South 10.4 mph - N/A   Clear
7:15 PM 47.8 °F - 45.5 °F 92% 30.12 in 7.0 mi South 10.4 mph - N/A   Clear
7:35 PM 46.9 °F - 45.0 °F 93% 30.12 in 7.0 mi South 11.5 mph - N/A   Clear
7:55 PM 46.8 °F - 44.8 °F 93% 30.13 in 7.0 mi South 10.4 mph - N/A   Clear
8:15 PM 46.8 °F - 44.8 °F 93% 30.12 in 7.0 mi South 10.4 mph - N/A   Clear
8:35 PM 46.8 °F - 44.6 °F 92% 30.12 in 7.0 mi South 11.5 mph - N/A   Clear
8:55 PM 47.3 °F - 44.8 °F 91% 30.12 in 7.0 mi South 12.7 mph - N/A   Clear
9:15 PM 47.1 °F - 45.0 °F 92% 30.12 in 5.0 mi South 12.7 mph - N/A   Clear
9:35 PM 46.6 °F - 45.0 °F 94% 30.13 in 4.0 mi South 11.5 mph - N/A   Clear
9:55 PM 45.7 °F 40.6 °F 44.4 °F 95% 30.12 in 3.0 mi South 10.4 mph - N/A   Clear
10:15 PM 45.0 °F 39.3 °F 44.2 °F 97% 30.12 in 2.5 mi South 11.5 mph - N/A   Clear
10:35 PM 45.0 °F 39.7 °F 44.4 °F 98% 30.11 in 2.5 mi South 10.4 mph - N/A   Clear
10:55 PM 46.2 °F 40.8 °F 45.5 °F 97% 30.11 in 2.5 mi South 11.5 mph - N/A   Clear
11:15 PM 45.9 °F 40.8 °F 45.0 °F 97% 30.10 in 2.0 mi South 10.4 mph - N/A   Clear
11:35 PM 45.9 °F 40.8 °F 45.0 °F 97% 30.10 in 2.0 mi South 10.4 mph - N/A   Clear
11:55 PM 45.9 °F 40.0 °F 45.0 °F 97% 30.10 in 2.5 mi South 12.7 mph - N/A   Clear